sensor_id;sensor_type;location;lat;lon;timestamp;pressure;altitude;pressure_sealevel;temperature;humidity
72548;BME280;60570;50.848;6.776;2023-12-07T00:00:50;100882.81;;;6.87;68.11
72548;BME280;60570;50.848;6.776;2023-12-07T00:01:52;100875.31;;;6.88;68.51
72548;BME280;60570;50.848;6.776;2023-12-07T00:02:52;100878.09;;;6.88;68.31
72548;BME280;60570;50.848;6.776;2023-12-07T00:03:54;100893.53;;;6.89;68.04
72548;BME280;60570;50.848;6.776;2023-12-07T00:04:55;100883.31;;;6.89;68.01
72548;BME280;60570;50.848;6.776;2023-12-07T00:05:56;100881.66;;;6.88;68.16
72548;BME280;60570;50.848;6.776;2023-12-07T00:06:57;100888.03;;;6.89;67.98
72548;BME280;60570;50.848;6.776;2023-12-07T00:07:59;100891.09;;;6.87;68.10
72548;BME280;60570;50.848;6.776;2023-12-07T00:08:59;100888.31;;;6.87;68.30
72548;BME280;60570;50.848;6.776;2023-12-07T00:10:02;100895.78;;;6.87;68.49
72548;BME280;60570;50.848;6.776;2023-12-07T00:11:02;100890.88;;;6.84;68.43
72548;BME280;60570;50.848;6.776;2023-12-07T00:12:05;100895.25;;;6.85;68.22
72548;BME280;60570;50.848;6.776;2023-12-07T00:13:06;100896.41;;;6.84;68.24
72548;BME280;60570;50.848;6.776;2023-12-07T00:14:08;100888.91;;;6.84;68.10
72548;BME280;60570;50.848;6.776;2023-12-07T00:15:10;100894.75;;;6.83;68.17
72548;BME280;60570;50.848;6.776;2023-12-07T00:16:11;100887.59;;;6.82;68.56
72548;BME280;60570;50.848;6.776;2023-12-07T00:17:12;100897.50;;;6.83;68.48
72548;BME280;60570;50.848;6.776;2023-12-07T00:18:14;100893.63;;;6.84;68.35
72548;BME280;60570;50.848;6.776;2023-12-07T00:19:15;100891.69;;;6.84;68.08
72548;BME280;60570;50.848;6.776;2023-12-07T00:20:16;100890.88;;;6.84;68.35
72548;BME280;60570;50.848;6.776;2023-12-07T00:21:18;100891.97;;;6.83;68.39
72548;BME280;60570;50.848;6.776;2023-12-07T00:22:18;100885.63;;;6.82;67.93
72548;BME280;60570;50.848;6.776;2023-12-07T00:23:20;100889.22;;;6.83;68.29
72548;BME280;60570;50.848;6.776;2023-12-07T00:24:21;100889.22;;;6.83;68.25
72548;BME280;60570;50.848;6.776;2023-12-07T00:25:34;100901.91;;;6.84;68.37
72548;BME280;60570;50.848;6.776;2023-12-07T00:26:52;100891.69;;;6.84;68.33
72548;BME280;60570;50.848;6.776;2023-12-07T00:27:53;100895.25;;;6.85;68.45
72548;BME280;60570;50.848;6.776;2023-12-07T00:28:55;100899.16;;;6.84;68.07
72548;BME280;60570;50.848;6.776;2023-12-07T00:29:56;100896.41;;;6.84;67.89
72548;BME280;60570;50.848;6.776;2023-12-07T00:30:59;100896.41;;;6.84;68.01
72548;BME280;60570;50.848;6.776;2023-12-07T00:32:00;100896.41;;;6.84;68.43
72548;BME280;60570;50.848;6.776;2023-12-07T00:33:01;100893.63;;;6.84;68.26
72548;BME280;60570;50.848;6.776;2023-12-07T00:34:02;100893.63;;;6.84;68.28
72548;BME280;60570;50.848;6.776;2023-12-07T00:35:05;100895.56;;;6.83;68.06
72548;BME280;60570;50.848;6.776;2023-12-07T00:36:07;100890.06;;;6.83;68.19
72548;BME280;60570;50.848;6.776;2023-12-07T00:37:09;100886.47;;;6.83;68.33
72548;BME280;60570;50.848;6.776;2023-12-07T00:38:10;100891.16;;;6.82;68.19
72548;BME280;60570;50.848;6.776;2023-12-07T00:39:11;100897.50;;;6.83;68.19
72548;BME280;60570;50.848;6.776;2023-12-07T00:40:13;100890.06;;;6.83;68.02
72548;BME280;60570;50.848;6.776;2023-12-07T00:41:14;100893.13;;;6.82;68.39
72548;BME280;60570;50.848;6.776;2023-12-07T00:42:16;100890.34;;;6.82;68.18
72548;BME280;60570;50.848;6.776;2023-12-07T00:43:16;100895.88;;;6.82;68.15
72548;BME280;60570;50.848;6.776;2023-12-07T00:44:18;100895.06;;;6.81;68.27
72548;BME280;60570;50.848;6.776;2023-12-07T00:45:19;100897.81;;;6.81;68.31
72548;BME280;60570;50.848;6.776;2023-12-07T00:46:21;100901.41;;;6.82;68.34
72548;BME280;60570;50.848;6.776;2023-12-07T00:47:23;100895.88;;;6.82;68.34
72548;BME280;60570;50.848;6.776;2023-12-07T00:48:24;100895.88;;;6.82;67.73
72548;BME280;60570;50.848;6.776;2023-12-07T00:49:25;100893.13;;;6.82;68.08
72548;BME280;60570;50.848;6.776;2023-12-07T00:50:26;100893.13;;;6.82;68.11
72548;BME280;60570;50.848;6.776;2023-12-07T00:51:28;100890.63;;;6.80;67.97
72548;BME280;60570;50.848;6.776;2023-12-07T00:52:28;100887.59;;;6.82;68.15
72548;BME280;60570;50.848;6.776;2023-12-07T00:53:29;100890.88;;;6.84;67.92
72548;BME280;60570;50.848;6.776;2023-12-07T00:54:31;100887.28;;;6.83;68.14
72548;BME280;60570;50.848;6.776;2023-12-07T00:55:31;100889.22;;;6.83;68.05
72548;BME280;60570;50.848;6.776;2023-12-07T00:56:33;100892.28;;;6.81;67.83
72548;BME280;60570;50.848;6.776;2023-12-07T00:57:34;100887.59;;;6.82;68.10
72548;BME280;60570;50.848;6.776;2023-12-07T00:58:36;100890.63;;;6.80;68.17
72548;BME280;60570;50.848;6.776;2023-12-07T00:59:38;100896.47;;;6.79;68.09
72548;BME280;60570;50.848;6.776;2023-12-07T01:00:40;100894.53;;;6.79;68.20
72548;BME280;60570;50.848;6.776;2023-12-07T01:01:42;100891.78;;;6.79;67.76
72548;BME280;60570;50.848;6.776;2023-12-07T01:02:44;100886.56;;;6.78;68.14
72548;BME280;60570;50.848;6.776;2023-12-07T01:03:44;100894.00;;;6.77;68.21
72548;BME280;60570;50.848;6.776;2023-12-07T01:04:46;100890.72;;;6.75;68.22
72548;BME280;60570;50.848;6.776;2023-12-07T01:05:47;100897.88;;;6.76;67.75
72548;BME280;60570;50.848;6.776;2023-12-07T01:06:47;100895.13;;;6.76;67.81
72548;BME280;60570;50.848;6.776;2023-12-07T01:07:49;100899.84;;;6.76;68.25
72548;BME280;60570;50.848;6.776;2023-12-07T01:08:50;100894.31;;;6.76;68.16
72548;BME280;60570;50.848;6.776;2023-12-07T01:09:51;100894.59;;;6.74;67.66
72548;BME280;60570;50.848;6.776;2023-12-07T01:10:52;100898.19;;;6.75;67.71
72548;BME280;60570;50.848;6.776;2023-12-07T01:11:53;100892.66;;;6.75;67.81
72548;BME280;60570;50.848;6.776;2023-12-07T01:12:54;100895.44;;;6.75;67.71
72548;BME280;60570;50.848;6.776;2023-12-07T01:13:56;100895.72;;;6.73;67.87
72548;BME280;60570;50.848;6.776;2023-12-07T01:14:57;100895.22;;;6.71;68.27
72548;BME280;60570;50.848;6.776;2023-12-07T01:15:58;100897.97;;;6.71;67.84
72548;BME280;60570;50.848;6.776;2023-12-07T01:17:00;100899.09;;;6.70;68.11
72548;BME280;60570;50.848;6.776;2023-12-07T01:18:02;100893.59;;;6.70;68.28
72548;BME280;60570;50.848;6.776;2023-12-07T01:19:03;100892.75;;;6.70;67.83
72548;BME280;60570;50.848;6.776;2023-12-07T01:20:06;100891.63;;;6.71;67.83
72548;BME280;60570;50.848;6.776;2023-12-07T01:21:12;100891.63;;;6.71;68.28
72548;BME280;60570;50.848;6.776;2023-12-07T01:22:14;100896.34;;;6.70;67.78
72548;BME280;60570;50.848;6.776;2023-12-07T01:23:14;100892.22;;;6.68;67.89
72548;BME280;60570;50.848;6.776;2023-12-07T01:24:15;100893.84;;;6.69;67.81
72548;BME280;60570;50.848;6.776;2023-12-07T01:25:17;100892.22;;;6.68;68.22
72548;BME280;60570;50.848;6.776;2023-12-07T01:26:21;100893.84;;;6.69;68.13
72548;BME280;60570;50.848;6.776;2023-12-07T01:27:23;100896.94;;;6.67;67.79
72548;BME280;60570;50.848;6.776;2023-12-07T01:28:24;100900.50;;;6.68;68.06
72548;BME280;60570;50.848;6.776;2023-12-07T01:29:25;100894.16;;;6.67;68.02
72548;BME280;60570;50.848;6.776;2023-12-07T01:30:26;100896.09;;;6.67;68.06
72548;BME280;60570;50.848;6.776;2023-12-07T01:31:28;100892.22;;;6.68;68.19
72548;BME280;60570;50.848;6.776;2023-12-07T01:32:30;100890.56;;;6.67;68.19
72548;BME280;60570;50.848;6.776;2023-12-07T01:33:32;100889.47;;;6.68;67.79
72548;BME280;60570;50.848;6.776;2023-12-07T01:34:32;100902.44;;;6.67;68.05
72548;BME280;60570;50.848;6.776;2023-12-07T01:35:34;100902.44;;;6.67;67.69
72548;BME280;60570;50.848;6.776;2023-12-07T01:36:35;100901.34;;;6.68;67.77
72548;BME280;60570;50.848;6.776;2023-12-07T01:37:36;100892.53;;;6.66;68.21
72548;BME280;60570;50.848;6.776;2023-12-07T01:38:37;100901.09;;;6.65;67.79
72548;BME280;60570;50.848;6.776;2023-12-07T01:39:38;100902.75;;;6.66;67.92
72548;BME280;60570;50.848;6.776;2023-12-07T01:40:39;100896.41;;;6.65;68.14
72548;BME280;60570;50.848;6.776;2023-12-07T01:41:40;100900.31;;;6.64;67.77
72548;BME280;60570;50.848;6.776;2023-12-07T01:42:49;100903.84;;;6.65;67.93
72548;BME280;60570;50.848;6.776;2023-12-07T01:43:50;100899.47;;;6.64;68.10
72548;BME280;60570;50.848;6.776;2023-12-07T01:44:51;100907.75;;;6.64;68.00
72548;BME280;60570;50.848;6.776;2023-12-07T01:45:53;100908.59;;;6.64;67.89
72548;BME280;60570;50.848;6.776;2023-12-07T01:46:56;100906.09;;;6.63;67.61
72548;BME280;60570;50.848;6.776;2023-12-07T01:47:58;100908.06;;;6.62;67.61
72548;BME280;60570;50.848;6.776;2023-12-07T01:49:00;100916.88;;;6.64;67.95
72548;BME280;60570;50.848;6.776;2023-12-07T01:50:01;100920.41;;;6.65;67.72
72548;BME280;60570;50.848;6.776;2023-12-07T01:51:05;100912.44;;;6.63;68.14
72548;BME280;60570;50.848;6.776;2023-12-07T01:52:08;100915.22;;;6.63;68.15
72548;BME280;60570;50.848;6.776;2023-12-07T01:53:09;100917.97;;;6.63;67.96
72548;BME280;60570;50.848;6.776;2023-12-07T01:54:13;100922.38;;;6.64;68.05
72548;BME280;60570;50.848;6.776;2023-12-07T01:55:14;100913.28;;;6.64;67.74
72548;BME280;60570;50.848;6.776;2023-12-07T01:56:16;100920.22;;;6.61;67.60
72548;BME280;60570;50.848;6.776;2023-12-07T01:57:17;100919.91;;;6.63;67.69
72548;BME280;60570;50.848;6.776;2023-12-07T01:58:20;100931.25;;;6.61;67.87
72548;BME280;60570;50.848;6.776;2023-12-07T01:59:21;100921.88;;;6.62;67.68
72548;BME280;60570;50.848;6.776;2023-12-07T02:00:23;100919.09;;;6.62;67.56
72548;BME280;60570;50.848;6.776;2023-12-07T02:01:23;100920.22;;;6.61;67.79
72548;BME280;60570;50.848;6.776;2023-12-07T02:02:25;100922.66;;;6.63;67.47
72548;BME280;60570;50.848;6.776;2023-12-07T02:03:27;100920.22;;;6.61;67.79
72548;BME280;60570;50.848;6.776;2023-12-07T02:04:30;100921.88;;;6.62;67.62
72548;BME280;60570;50.848;6.776;2023-12-07T02:05:31;100913.84;;;6.61;67.84
72548;BME280;60570;50.848;6.776;2023-12-07T02:06:33;100919.38;;;6.61;67.90
72548;BME280;60570;50.848;6.776;2023-12-07T02:07:34;100927.66;;;6.61;67.85
72548;BME280;60570;50.848;6.776;2023-12-07T02:08:34;100923.28;;;6.60;67.85
72548;BME280;60570;50.848;6.776;2023-12-07T02:09:37;100922.44;;;6.59;67.68
72548;BME280;60570;50.848;6.776;2023-12-07T02:10:38;100923.28;;;6.60;67.88
72548;BME280;60570;50.848;6.776;2023-12-07T02:11:40;100933.47;;;6.59;67.63
72548;BME280;60570;50.848;6.776;2023-12-07T02:12:41;100925.50;;;6.58;67.95
72548;BME280;60570;50.848;6.776;2023-12-07T02:13:43;100925.50;;;6.58;67.80
72548;BME280;60570;50.848;6.776;2023-12-07T02:14:44;100931.84;;;6.58;67.59
72548;BME280;60570;50.848;6.776;2023-12-07T02:15:45;100929.09;;;6.58;67.65
72548;BME280;60570;50.848;6.776;2023-12-07T02:16:48;100920.28;;;6.56;67.87
72548;BME280;60570;50.848;6.776;2023-12-07T02:17:55;100925.81;;;6.56;67.51
72548;BME280;60570;50.848;6.776;2023-12-07T02:19:03;100924.69;;;6.57;67.67
72548;BME280;60570;50.848;6.776;2023-12-07T02:20:12;100919.47;;;6.56;67.82
72548;BME280;60570;50.848;6.776;2023-12-07T02:21:22;100930.50;;;6.56;67.51
72548;BME280;60570;50.848;6.776;2023-12-07T02:22:29;100926.91;;;6.55;67.82
72548;BME280;60570;50.848;6.776;2023-12-07T02:23:33;100931.34;;;6.56;68.04
72548;BME280;60570;50.848;6.776;2023-12-07T02:24:37;100938.47;;;6.57;68.04
72548;BME280;60570;50.848;6.776;2023-12-07T02:27:39;100932.16;;;6.57;67.97
72548;BME280;60570;50.848;6.776;2023-12-07T02:28:41;100937.69;;;6.57;67.75
72548;BME280;60570;50.848;6.776;2023-12-07T02:29:42;100928.56;;;6.56;67.28
72548;BME280;60570;50.848;6.776;2023-12-07T02:30:44;100930.81;;;6.54;67.69
72548;BME280;60570;50.848;6.776;2023-12-07T02:31:45;100937.16;;;6.55;67.94
72548;BME280;60570;50.848;6.776;2023-12-07T02:32:47;100930.50;;;6.56;67.98
72548;BME280;60570;50.848;6.776;2023-12-07T02:33:48;100934.41;;;6.55;67.76
72548;BME280;60570;50.848;6.776;2023-12-07T02:34:50;100934.41;;;6.55;67.84
72548;BME280;60570;50.848;6.776;2023-12-07T02:35:51;100935.19;;;6.55;67.94
72548;BME280;60570;50.848;6.776;2023-12-07T02:36:53;100936.03;;;6.56;67.81
72548;BME280;60570;50.848;6.776;2023-12-07T02:37:57;100941.03;;;6.54;67.48
72548;BME280;60570;50.848;6.776;2023-12-07T02:38:59;100932.75;;;6.54;67.59
72548;BME280;60570;50.848;6.776;2023-12-07T02:40:04;100933.88;;;6.53;67.96
72548;BME280;60570;50.848;6.776;2023-12-07T02:41:11;100925.59;;;6.53;67.45
72548;BME280;60570;50.848;6.776;2023-12-07T02:42:13;100933.03;;;6.52;67.45
72548;BME280;60570;50.848;6.776;2023-12-07T02:43:17;100931.91;;;6.53;67.97
72548;BME280;60570;50.848;6.776;2023-12-07T02:44:18;100930.28;;;6.52;67.67
72548;BME280;60570;50.848;6.776;2023-12-07T02:45:20;100928.34;;;6.53;67.79
72548;BME280;60570;50.848;6.776;2023-12-07T02:46:21;100937.44;;;6.53;67.45
72548;BME280;60570;50.848;6.776;2023-12-07T02:47:23;100922.84;;;6.53;67.70
72548;BME280;60570;50.848;6.776;2023-12-07T02:48:23;100927.22;;;6.54;67.85
72548;BME280;60570;50.848;6.776;2023-12-07T02:49:26;100927.53;;;6.52;67.82
72548;BME280;60570;50.848;6.776;2023-12-07T02:50:27;100922.84;;;6.53;67.79
72548;BME280;60570;50.848;6.776;2023-12-07T02:51:29;100923.94;;;6.52;67.56
72548;BME280;60570;50.848;6.776;2023-12-07T02:52:30;100916.78;;;6.51;67.79
72548;BME280;60570;50.848;6.776;2023-12-07T02:53:31;100916.28;;;6.49;67.75
72548;BME280;60570;50.848;6.776;2023-12-07T02:54:32;100914.03;;;6.51;67.75
72548;BME280;60570;50.848;6.776;2023-12-07T02:55:34;100910.75;;;6.49;67.91
72548;BME280;60570;50.848;6.776;2023-12-07T02:56:34;100922.31;;;6.51;67.80
72548;BME280;60570;50.848;6.776;2023-12-07T02:57:36;100918.19;;;6.48;67.57
72548;BME280;60570;50.848;6.776;2023-12-07T02:58:38;100922.59;;;6.49;67.37
72548;BME280;60570;50.848;6.776;2023-12-07T02:59:40;100920.66;;;6.50;67.42
72548;BME280;60570;50.848;6.776;2023-12-07T03:00:41;100915.44;;;6.48;67.79
72548;BME280;60570;50.848;6.776;2023-12-07T03:01:42;100924.53;;;6.49;67.45
72548;BME280;60570;50.848;6.776;2023-12-07T03:02:43;100914.31;;;6.49;67.88
72548;BME280;60570;50.848;6.776;2023-12-07T03:03:44;100916.78;;;6.51;67.83
72548;BME280;60570;50.848;6.776;2023-12-07T03:04:46;100916.28;;;6.49;67.65
72548;BME280;60570;50.848;6.776;2023-12-07T03:05:46;100917.06;;;6.49;67.32
72548;BME280;60570;50.848;6.776;2023-12-07T03:06:47;100923.41;;;6.50;67.40
72548;BME280;60570;50.848;6.776;2023-12-07T03:07:48;100913.50;;;6.49;67.80
72548;BME280;60570;50.848;6.776;2023-12-07T03:08:49;100908.78;;;6.49;67.77
72548;BME280;60570;50.848;6.776;2023-12-07T03:09:51;100916.28;;;6.49;67.46
72548;BME280;60570;50.848;6.776;2023-12-07T03:10:51;100909.94;;;6.48;67.79
72548;BME280;60570;50.848;6.776;2023-12-07T03:11:52;100910.75;;;6.49;67.81
72548;BME280;60570;50.848;6.776;2023-12-07T03:12:54;100908.78;;;6.49;67.73
72548;BME280;60570;50.848;6.776;2023-12-07T03:13:56;100913.78;;;6.47;67.50
72548;BME280;60570;50.848;6.776;2023-12-07T03:14:58;100914.63;;;6.48;67.83
72548;BME280;60570;50.848;6.776;2023-12-07T03:15:58;100909.63;;;6.50;67.67
72548;BME280;60570;50.848;6.776;2023-12-07T03:17:00;100912.38;;;6.50;67.52
72548;BME280;60570;50.848;6.776;2023-12-07T03:18:01;100917.06;;;6.49;67.66
72548;BME280;60570;50.848;6.776;2023-12-07T03:19:02;100916.78;;;6.51;67.23
72548;BME280;60570;50.848;6.776;2023-12-07T03:20:03;100911.56;;;6.49;67.40
72548;BME280;60570;50.848;6.776;2023-12-07T03:21:05;100917.91;;;6.50;67.41
72548;BME280;60570;50.848;6.776;2023-12-07T03:22:07;100918.19;;;6.48;67.68
72548;BME280;60570;50.848;6.776;2023-12-07T03:23:09;100918.19;;;6.48;67.74
72548;BME280;60570;50.848;6.776;2023-12-07T03:24:10;100905.50;;;6.47;67.51
72548;BME280;60570;50.848;6.776;2023-12-07T03:25:11;100903.34;;;6.44;67.75
72548;BME280;60570;50.848;6.776;2023-12-07T03:26:12;100909.41;;;6.46;67.34
72548;BME280;60570;50.848;6.776;2023-12-07T03:27:14;100910.22;;;6.47;67.43
72548;BME280;60570;50.848;6.776;2023-12-07T03:28:14;100907.47;;;6.47;67.69
72548;BME280;60570;50.848;6.776;2023-12-07T03:29:17;100911.34;;;6.46;67.42
72548;BME280;60570;50.848;6.776;2023-12-07T03:30:18;100920.44;;;6.46;67.46
72548;BME280;60570;50.848;6.776;2023-12-07T03:31:20;100912.16;;;6.46;67.72
72548;BME280;60570;50.848;6.776;2023-12-07T03:32:20;100909.41;;;6.46;67.77
72548;BME280;60570;50.848;6.776;2023-12-07T03:33:22;100913.78;;;6.47;67.60
72548;BME280;60570;50.848;6.776;2023-12-07T03:34:23;100912.69;;;6.48;67.64
72548;BME280;60570;50.848;6.776;2023-12-07T03:35:25;100908.56;;;6.46;67.78
72548;BME280;60570;50.848;6.776;2023-12-07T03:36:25;100905.81;;;6.46;67.80
72548;BME280;60570;50.848;6.776;2023-12-07T03:37:27;100907.47;;;6.47;67.42
72548;BME280;60570;50.848;6.776;2023-12-07T03:38:27;100911.03;;;6.47;67.33
72548;BME280;60570;50.848;6.776;2023-12-07T03:39:29;100906.63;;;6.46;67.32
72548;BME280;60570;50.848;6.776;2023-12-07T03:40:32;100902.22;;;6.45;67.67
72548;BME280;60570;50.848;6.776;2023-12-07T03:41:33;100899.19;;;6.47;67.75
72548;BME280;60570;50.848;6.776;2023-12-07T03:42:34;100907.47;;;6.47;67.38
72548;BME280;60570;50.848;6.776;2023-12-07T03:43:36;100904.97;;;6.45;67.94
72548;BME280;60570;50.848;6.776;2023-12-07T03:44:38;100907.75;;;6.45;67.42
72548;BME280;60570;50.848;6.776;2023-12-07T03:45:38;100904.97;;;6.45;67.64
72548;BME280;60570;50.848;6.776;2023-12-07T03:46:40;100906.41;;;6.43;67.78
72548;BME280;60570;50.848;6.776;2023-12-07T03:47:41;100903.97;;;6.41;67.95
72548;BME280;60570;50.848;6.776;2023-12-07T03:48:41;100907.53;;;6.42;67.93
72548;BME280;60570;50.848;6.776;2023-12-07T03:49:43;100903.97;;;6.41;67.67
72548;BME280;60570;50.848;6.776;2023-12-07T03:50:44;100898.72;;;6.40;67.71
72548;BME280;60570;50.848;6.776;2023-12-07T03:51:46;100899.56;;;6.40;67.61
72548;BME280;60570;50.848;6.776;2023-12-07T03:52:47;100905.59;;;6.42;67.52
72548;BME280;60570;50.848;6.776;2023-12-07T03:53:48;100904.25;;;6.40;67.69
72548;BME280;60570;50.848;6.776;2023-12-07T03:54:49;100898.72;;;6.40;67.73
72548;BME280;60570;50.848;6.776;2023-12-07T03:55:52;100900.69;;;6.39;67.48
72548;BME280;60570;50.848;6.776;2023-12-07T03:56:53;100896.78;;;6.40;67.75
72548;BME280;60570;50.848;6.776;2023-12-07T03:57:54;100900.69;;;6.39;67.80
72548;BME280;60570;50.848;6.776;2023-12-07T03:58:55;100899.84;;;6.39;67.51
72548;BME280;60570;50.848;6.776;2023-12-07T03:59:58;100891.88;;;6.37;67.73
72548;BME280;60570;50.848;6.776;2023-12-07T04:00:59;100896.56;;;6.37;67.86
72548;BME280;60570;50.848;6.776;2023-12-07T04:02:01;100901.78;;;6.38;67.46
72548;BME280;60570;50.848;6.776;2023-12-07T04:03:01;100903.13;;;6.41;67.61
72548;BME280;60570;50.848;6.776;2023-12-07T04:04:04;100900.69;;;6.39;67.54
72548;BME280;60570;50.848;6.776;2023-12-07T04:05:05;100901.78;;;6.38;67.46
72548;BME280;60570;50.848;6.776;2023-12-07T04:06:07;100897.41;;;6.37;67.59
72548;BME280;60570;50.848;6.776;2023-12-07T04:07:09;100896.28;;;6.38;67.49
72548;BME280;60570;50.848;6.776;2023-12-07T04:08:10;100898.19;;;6.38;67.45
72548;BME280;60570;50.848;6.776;2023-12-07T04:09:11;100898.50;;;6.36;67.84
72548;BME280;60570;50.848;6.776;2023-12-07T04:10:13;100897.69;;;6.35;67.71
72548;BME280;60570;50.848;6.776;2023-12-07T04:11:14;100902.09;;;6.37;67.35
72548;BME280;60570;50.848;6.776;2023-12-07T04:12:16;100910.38;;;6.37;67.50
72548;BME280;60570;50.848;6.776;2023-12-07T04:13:17;100906.78;;;6.36;67.46
72548;BME280;60570;50.848;6.776;2023-12-07T04:14:18;100909.53;;;6.36;67.39
72548;BME280;60570;50.848;6.776;2023-12-07T04:15:21;100905.16;;;6.35;67.48
72548;BME280;60570;50.848;6.776;2023-12-07T04:16:23;100899.91;;;6.33;67.50
72548;BME280;60570;50.848;6.776;2023-12-07T04:17:24;100902.97;;;6.32;67.94
72548;BME280;60570;50.848;6.776;2023-12-07T04:18:25;100909.31;;;6.32;67.46
72548;BME280;60570;50.848;6.776;2023-12-07T04:19:26;100912.09;;;6.32;67.70
72548;BME280;60570;50.848;6.776;2023-12-07T04:20:27;100910.16;;;6.33;67.74
72548;BME280;60570;50.848;6.776;2023-12-07T04:21:29;100914.22;;;6.35;67.78
72548;BME280;60570;50.848;6.776;2023-12-07T04:22:31;100909.03;;;6.34;67.65
72548;BME280;60570;50.848;6.776;2023-12-07T04:23:32;100912.09;;;6.32;67.50
72548;BME280;60570;50.848;6.776;2023-12-07T04:24:33;100917.59;;;6.32;67.29
72548;BME280;60570;50.848;6.776;2023-12-07T04:25:34;100915.66;;;6.33;67.47
72548;BME280;60570;50.848;6.776;2023-12-07T04:26:36;100919.22;;;6.33;67.75
72548;BME280;60570;50.848;6.776;2023-12-07T04:27:36;100917.28;;;6.34;67.55
72548;BME280;60570;50.848;6.776;2023-12-07T04:28:38;100913.72;;;6.33;67.51
72548;BME280;60570;50.848;6.776;2023-12-07T04:29:39;100914.53;;;6.34;67.47
72548;BME280;60570;50.848;6.776;2023-12-07T04:30:42;100915.38;;;6.34;67.69
72548;BME280;60570;50.848;6.776;2023-12-07T04:31:42;100916.47;;;6.33;67.53
72548;BME280;60570;50.848;6.776;2023-12-07T04:32:43;100920.34;;;6.32;67.41
72548;BME280;60570;50.848;6.776;2023-12-07T04:33:45;100917.91;;;6.31;67.44
72548;BME280;60570;50.848;6.776;2023-12-07T04:34:46;100920.66;;;6.31;67.48
72548;BME280;60570;50.848;6.776;2023-12-07T04:35:47;100914.31;;;6.30;67.44
72548;BME280;60570;50.848;6.776;2023-12-07T04:36:49;100913.19;;;6.31;67.32
72548;BME280;60570;50.848;6.776;2023-12-07T04:37:51;100920.34;;;6.32;67.28
72548;BME280;60570;50.848;6.776;2023-12-07T04:38:51;100919.84;;;6.30;67.38
72548;BME280;60570;50.848;6.776;2023-12-07T04:39:53;100923.41;;;6.31;67.57
72548;BME280;60570;50.848;6.776;2023-12-07T04:40:54;100923.41;;;6.31;67.27
72548;BME280;60570;50.848;6.776;2023-12-07T04:41:55;100919.00;;;6.30;67.73
72548;BME280;60570;50.848;6.776;2023-12-07T04:42:56;100920.13;;;6.29;67.74
72548;BME280;60570;50.848;6.776;2023-12-07T04:43:57;100926.75;;;6.28;67.71
72548;BME280;60570;50.848;6.776;2023-12-07T04:44:58;100919.63;;;6.27;67.39
72548;BME280;60570;50.848;6.776;2023-12-07T04:46:01;100931.75;;;6.26;67.72
72548;BME280;60570;50.848;6.776;2023-12-07T04:47:03;100926.53;;;6.24;67.64
72548;BME280;60570;50.848;6.776;2023-12-07T04:48:04;100924.59;;;6.25;67.48
72548;BME280;60570;50.848;6.776;2023-12-07T04:49:05;100931.22;;;6.24;67.86
72548;BME280;60570;50.848;6.776;2023-12-07T04:50:07;100930.44;;;6.23;67.77
72548;BME280;60570;50.848;6.776;2023-12-07T04:51:09;100930.13;;;6.25;67.75
72548;BME280;60570;50.848;6.776;2023-12-07T04:52:10;100928.19;;;6.25;67.62
72548;BME280;60570;50.848;6.776;2023-12-07T04:53:12;100935.34;;;6.26;67.96
72548;BME280;60570;50.848;6.776;2023-12-07T04:54:12;100938.91;;;6.27;67.54
72548;BME280;60570;50.848;6.776;2023-12-07T04:55:15;100937.78;;;6.28;67.95
72548;BME280;60570;50.848;6.776;2023-12-07T04:56:16;100942.50;;;6.27;67.82
72548;BME280;60570;50.848;6.776;2023-12-07T04:57:17;100936.16;;;6.27;67.43
72548;BME280;60570;50.848;6.776;2023-12-07T04:58:18;100935.63;;;6.25;67.60
72548;BME280;60570;50.848;6.776;2023-12-07T04:59:20;100941.97;;;6.25;67.91
72548;BME280;60570;50.848;6.776;2023-12-07T05:00:21;100940.03;;;6.26;67.92
72548;BME280;60570;50.848;6.776;2023-12-07T05:01:24;100946.66;;;6.25;67.68
72548;BME280;60570;50.848;6.776;2023-12-07T05:02:24;100951.06;;;6.26;67.61
72548;BME280;60570;50.848;6.776;2023-12-07T05:03:26;100943.59;;;6.26;67.42
72548;BME280;60570;50.848;6.776;2023-12-07T05:04:28;100943.09;;;6.24;67.66
72548;BME280;60570;50.848;6.776;2023-12-07T05:05:28;100944.22;;;6.23;67.57
72548;BME280;60570;50.848;6.776;2023-12-07T05:06:30;100942.56;;;6.22;67.89
72548;BME280;60570;50.848;6.776;2023-12-07T05:07:31;100942.56;;;6.22;67.45
72548;BME280;60570;50.848;6.776;2023-12-07T05:08:31;100946.97;;;6.23;67.89
72548;BME280;60570;50.848;6.776;2023-12-07T05:09:33;100947.53;;;6.20;67.63
72548;BME280;60570;50.848;6.776;2023-12-07T05:10:34;100946.72;;;6.20;67.66
72548;BME280;60570;50.848;6.776;2023-12-07T05:11:36;100944.78;;;6.20;67.48
72548;BME280;60570;50.848;6.776;2023-12-07T05:12:38;100951.44;;;6.19;67.82
72548;BME280;60570;50.848;6.776;2023-12-07T05:13:39;100948.69;;;6.19;68.02
72548;BME280;60570;50.848;6.776;2023-12-07T05:14:40;100943.97;;;6.20;67.81
72548;BME280;60570;50.848;6.776;2023-12-07T05:15:42;100945.09;;;6.19;67.54
72548;BME280;60570;50.848;6.776;2023-12-07T05:16:44;100949.78;;;6.18;67.60
72548;BME280;60570;50.848;6.776;2023-12-07T05:17:46;100947.63;;;6.15;67.67
72548;BME280;60570;50.848;6.776;2023-12-07T05:18:46;100945.66;;;6.16;67.67
72548;BME280;60570;50.848;6.776;2023-12-07T05:19:48;100947.31;;;6.17;67.77
72548;BME280;60570;50.848;6.776;2023-12-07T05:20:49;100950.91;;;6.17;67.75
72548;BME280;60570;50.848;6.776;2023-12-07T05:21:51;100946.50;;;6.16;68.00
72548;BME280;60570;50.848;6.776;2023-12-07T05:22:52;100953.94;;;6.16;68.12
72548;BME280;60570;50.848;6.776;2023-12-07T05:23:53;100955.59;;;6.17;67.87
72548;BME280;60570;50.848;6.776;2023-12-07T05:24:54;100954.25;;;6.14;67.83
72548;BME280;60570;50.848;6.776;2023-12-07T05:25:56;100954.25;;;6.14;68.22
72548;BME280;60570;50.848;6.776;2023-12-07T05:26:56;100952.00;;;6.16;68.07
72548;BME280;60570;50.848;6.776;2023-12-07T05:27:58;100950.09;;;6.17;67.85
72548;BME280;60570;50.848;6.776;2023-12-07T05:28:59;100964.69;;;6.17;67.81